CSN6959 ZGHA-ZGGG
Flight info
| Callsign | CSN6959 |
|---|---|
| Flight time | N/A |
| Altitude | 35100 |
| Route | UBM9W UBMOG W615 IDAXI R473 BEMAG/K0815S1100 V5 ENVIP ENVIP1 |
| Aircraft | A320/L-SDE3FGHIRWY/LB1 |
Departure
| Time | 2026-04-26 03:32 |
|---|---|
| Airport | Changsha Huanghua International Airport (ZGHA) |
Arrival
| Time | N/A |
|---|---|
| Airport | Guangzhou Baiyun International Airport (ZGGG) |
| Time | Latitude | Longitude | Altitude | Speed | Heading |
|---|---|---|---|---|---|
| 2026-04-26 03:01 | 28.19662 | 113.21508 | 214 ft | 0 kts | 273° |
| 2026-04-26 03:24 | 28.19662 | 113.21510 | 214 ft | 2 kts | 273° |
| 2026-04-26 03:24 | 28.19661 | 113.21539 | 214 ft | 4 kts | 272° |
| 2026-04-26 03:25 | 28.19660 | 113.21569 | 214 ft | 4 kts | 272° |
| 2026-04-26 03:25 | 28.19659 | 113.21599 | 214 ft | 3 kts | 272° |
| 2026-04-26 03:25 | 28.19656 | 113.21623 | 216 ft | 4 kts | 299° |
| 2026-04-26 03:25 | 28.19638 | 113.21642 | 216 ft | 4 kts | 343° |
| 2026-04-26 03:26 | 28.19617 | 113.21646 | 214 ft | 0 kts | 357° |
| 2026-04-26 03:28 | 28.19653 | 113.21644 | 219 ft | 14 kts | 357° |
| 2026-04-26 03:28 | 28.19766 | 113.21637 | 214 ft | 16 kts | 357° |
| 2026-04-26 03:29 | 28.19874 | 113.21631 | 214 ft | 15 kts | 357° |
| 2026-04-26 03:29 | 28.19972 | 113.21626 | 214 ft | 14 kts | 357° |
| 2026-04-26 03:29 | 28.20052 | 113.21651 | 216 ft | 12 kts | 58° |
| 2026-04-26 03:29 | 28.20091 | 113.21712 | 214 ft | 9 kts | 21° |
| 2026-04-26 03:30 | 28.20179 | 113.21711 | 214 ft | 20 kts | 357° |
| 2026-04-26 03:30 | 28.20316 | 113.21702 | 214 ft | 20 kts | 356° |
| 2026-04-26 03:30 | 28.20452 | 113.21694 | 214 ft | 19 kts | 357° |
| 2026-04-26 03:30 | 28.20570 | 113.21689 | 214 ft | 12 kts | 8° |
| 2026-04-26 03:31 | 28.20603 | 113.21752 | 215 ft | 5 kts | 86° |
| 2026-04-26 03:31 | 28.20605 | 113.21784 | 215 ft | 3 kts | 87° |
| 2026-04-26 03:31 | 28.20601 | 113.21835 | 222 ft | 12 kts | 107° |
| 2026-04-26 03:31 | 28.20535 | 113.21877 | 220 ft | 13 kts | 174° |
| 2026-04-26 03:32 | 28.20366 | 113.21889 | 216 ft | 57 kts | 177° |
| 2026-04-26 03:32 | 28.19655 | 113.21933 | 219 ft | 143 kts | 176° |
| 2026-04-26 03:32 | 28.18537 | 113.21971 | 720 ft | 167 kts | 178° |
| 2026-04-26 03:32 | 28.17328 | 113.22005 | 1553 ft | 179 kts | 179° |
| 2026-04-26 03:33 | 28.16067 | 113.22068 | 2204 ft | 189 kts | 178° |
| 2026-04-26 03:33 | 28.14698 | 113.22166 | 2628 ft | 207 kts | 178° |
| 2026-04-26 03:33 | 28.13234 | 113.22276 | 3344 ft | 211 kts | 178° |
| 2026-04-26 03:33 | 28.11767 | 113.22383 | 3784 ft | 216 kts | 178° |
| 2026-04-26 03:34 | 28.10281 | 113.22568 | 4057 ft | 218 kts | 162° |
| 2026-04-26 03:34 | 28.09025 | 113.23539 | 4853 ft | 226 kts | 129° |
| 2026-04-26 03:34 | 28.08453 | 113.25207 | 5590 ft | 235 kts | 98° |
| 2026-04-26 03:34 | 28.08312 | 113.27054 | 6407 ft | 237 kts | 96° |
| 2026-04-26 03:35 | 28.08201 | 113.28936 | 7164 ft | 242 kts | 96° |
| 2026-04-26 03:35 | 28.08093 | 113.30858 | 7886 ft | 248 kts | 94° |
| 2026-04-26 03:35 | 28.07981 | 113.32826 | 8625 ft | 253 kts | 93° |
| 2026-04-26 03:35 | 28.07859 | 113.34881 | 9091 ft | 273 kts | 93° |
| 2026-04-26 03:36 | 28.07723 | 113.37118 | 9442 ft | 296 kts | 93° |
| 2026-04-26 03:36 | 28.07572 | 113.39461 | 10048 ft | 306 kts | 92° |
| 2026-04-26 03:36 | 28.07408 | 113.41951 | 10377 ft | 329 kts | 93° |
| 2026-04-26 03:36 | 28.07229 | 113.44622 | 10726 ft | 348 kts | 93° |
| 2026-04-26 03:37 | 28.06992 | 113.47390 | 11361 ft | 356 kts | 96° |
| 2026-04-26 03:37 | 28.06673 | 113.50191 | 12060 ft | 362 kts | 97° |
| 2026-04-26 03:37 | 28.06309 | 113.53026 | 12769 ft | 366 kts | 98° |
| 2026-04-26 03:37 | 28.05926 | 113.55897 | 13476 ft | 371 kts | 98° |
| 2026-04-26 03:38 | 28.05543 | 113.58805 | 14132 ft | 376 kts | 98° |
| 2026-04-26 03:38 | 28.05168 | 113.61708 | 14736 ft | 380 kts | 99° |
| 2026-04-26 03:38 | 28.04404 | 113.64584 | 15333 ft | 385 kts | 117° |
| 2026-04-26 03:38 | 28.02850 | 113.67042 | 15937 ft | 386 kts | 138° |
| 2026-04-26 03:39 | 28.00668 | 113.68775 | 16525 ft | 384 kts | 159° |
| 2026-04-26 03:39 | 27.98124 | 113.69582 | 17149 ft | 379 kts | 178° |
| 2026-04-26 03:39 | 27.95509 | 113.69514 | 17759 ft | 377 kts | 188° |
| 2026-04-26 03:39 | 27.92879 | 113.69268 | 18347 ft | 381 kts | 189° |
| 2026-04-26 03:40 | 27.90225 | 113.69020 | 18860 ft | 384 kts | 188° |
| 2026-04-26 03:40 | 27.87548 | 113.68774 | 19369 ft | 388 kts | 188° |
| 2026-04-26 03:40 | 27.84839 | 113.68529 | 19873 ft | 392 kts | 188° |
| 2026-04-26 03:40 | 27.82140 | 113.68288 | 20379 ft | 396 kts | 188° |
| 2026-04-26 03:41 | 27.79376 | 113.68044 | 20907 ft | 400 kts | 188° |
| 2026-04-26 03:41 | 27.76590 | 113.67802 | 21441 ft | 404 kts | 188° |
| 2026-04-26 03:41 | 27.73774 | 113.67558 | 21942 ft | 409 kts | 188° |
| 2026-04-26 03:41 | 27.70928 | 113.67312 | 22489 ft | 412 kts | 188° |
| 2026-04-26 03:42 | 27.68055 | 113.67062 | 22993 ft | 416 kts | 188° |
| 2026-04-26 03:42 | 27.65153 | 113.66808 | 23511 ft | 420 kts | 188° |
| 2026-04-26 03:42 | 27.62206 | 113.66772 | 23939 ft | 426 kts | 182° |
| 2026-04-26 03:42 | 27.59232 | 113.66845 | 24370 ft | 429 kts | 182° |
| 2026-04-26 03:43 | 27.56276 | 113.66920 | 24791 ft | 432 kts | 182° |
| 2026-04-26 03:43 | 27.53260 | 113.66999 | 25212 ft | 435 kts | 182° |
| 2026-04-26 03:43 | 27.50229 | 113.67084 | 25524 ft | 438 kts | 182° |
| 2026-04-26 03:43 | 27.47184 | 113.67171 | 25604 ft | 438 kts | 182° |
| 2026-04-26 03:44 | 27.44137 | 113.67421 | 25620 ft | 441 kts | 175° |
| 2026-04-26 03:44 | 27.41103 | 113.67905 | 25615 ft | 440 kts | 175° |
| 2026-04-26 03:44 | 27.38065 | 113.68393 | 25620 ft | 441 kts | 175° |
| 2026-04-26 03:44 | 27.36057 | 113.68716 | 25621 ft | 440 kts | 175° |
| 2026-04-26 03:45 | 27.32001 | 113.69366 | 25625 ft | 440 kts | 175° |
| 2026-04-26 03:45 | 27.29008 | 113.69845 | 25617 ft | 440 kts | 175° |
| 2026-04-26 03:45 | 27.25981 | 113.70329 | 25613 ft | 440 kts | 175° |
| 2026-04-26 03:45 | 27.22950 | 113.70814 | 25624 ft | 440 kts | 175° |
| 2026-04-26 03:46 | 27.20939 | 113.71137 | 25619 ft | 440 kts | 175° |
| 2026-04-26 03:46 | 27.16884 | 113.71787 | 25621 ft | 440 kts | 175° |
| 2026-04-26 03:46 | 27.14879 | 113.72106 | 25609 ft | 440 kts | 175° |
| 2026-04-26 03:47 | 27.08810 | 113.73072 | 25626 ft | 440 kts | 175° |
| 2026-04-26 03:47 | 27.05781 | 113.73555 | 25623 ft | 440 kts | 175° |
| 2026-04-26 03:47 | 27.02749 | 113.74039 | 25614 ft | 440 kts | 175° |
| 2026-04-26 03:47 | 26.98738 | 113.74684 | 25623 ft | 440 kts | 175° |
| 2026-04-26 03:48 | 26.96690 | 113.75011 | 25627 ft | 440 kts | 175° |
| 2026-04-26 03:48 | 26.93702 | 113.75487 | 25622 ft | 440 kts | 175° |
| 2026-04-26 03:48 | 26.89641 | 113.76128 | 25626 ft | 441 kts | 175° |
| 2026-04-26 03:48 | 26.87626 | 113.76447 | 25628 ft | 441 kts | 175° |
| 2026-04-26 03:49 | 26.84588 | 113.76930 | 25619 ft | 441 kts | 175° |
| 2026-04-26 03:49 | 26.81549 | 113.77417 | 25624 ft | 441 kts | 175° |
| 2026-04-26 03:49 | 26.77523 | 113.78065 | 25623 ft | 441 kts | 175° |
| 2026-04-26 03:49 | 26.74487 | 113.78573 | 25624 ft | 442 kts | 172° |
| 2026-04-26 03:50 | 26.72463 | 113.79125 | 25621 ft | 444 kts | 167° |
| 2026-04-26 03:50 | 26.69525 | 113.80040 | 25621 ft | 445 kts | 167° |
| 2026-04-26 03:50 | 26.66547 | 113.80974 | 25626 ft | 444 kts | 167° |
| 2026-04-26 03:50 | 26.63572 | 113.81912 | 25625 ft | 444 kts | 167° |
| 2026-04-26 03:51 | 26.60598 | 113.82849 | 25626 ft | 444 kts | 167° |
| 2026-04-26 03:51 | 26.57629 | 113.83783 | 25626 ft | 444 kts | 167° |
| 2026-04-26 03:51 | 26.54654 | 113.84717 | 25627 ft | 443 kts | 167° |
| 2026-04-26 03:51 | 26.50724 | 113.85944 | 25628 ft | 443 kts | 167° |
| 2026-04-26 03:52 | 26.48716 | 113.86566 | 25629 ft | 443 kts | 168° |
| 2026-04-26 03:52 | 26.45743 | 113.87454 | 25628 ft | 442 kts | 168° |
| 2026-04-26 03:52 | 26.42772 | 113.88312 | 25638 ft | 442 kts | 169° |
| 2026-04-26 03:52 | 26.39787 | 113.89158 | 25637 ft | 442 kts | 168° |
| 2026-04-26 03:53 | 26.36809 | 113.89999 | 25637 ft | 442 kts | 169° |
| 2026-04-26 03:53 | 26.33831 | 113.90843 | 25637 ft | 442 kts | 169° |
| 2026-04-26 03:53 | 26.30848 | 113.91694 | 25644 ft | 442 kts | 168° |
| 2026-04-26 03:53 | 26.27911 | 113.92539 | 25644 ft | 442 kts | 168° |
| 2026-04-26 03:54 | 26.24934 | 113.93397 | 25643 ft | 443 kts | 168° |
| 2026-04-26 03:54 | 26.21956 | 113.94259 | 25643 ft | 443 kts | 168° |
| 2026-04-26 03:54 | 26.18974 | 113.95125 | 25644 ft | 443 kts | 168° |
| 2026-04-26 03:54 | 26.15988 | 113.95994 | 25647 ft | 443 kts | 168° |
| 2026-04-26 03:55 | 26.13004 | 113.96861 | 25645 ft | 443 kts | 168° |
| 2026-04-26 03:55 | 26.10022 | 113.97721 | 25645 ft | 442 kts | 168° |
| 2026-04-26 03:55 | 26.07037 | 113.98575 | 25646 ft | 442 kts | 169° |
| 2026-04-26 03:56 | 26.00242 | 113.99693 | 25644 ft | 434 kts | 186° |
| 2026-04-26 03:57 | 25.88951 | 113.97855 | 25641 ft | 430 kts | 193° |
| 2026-04-26 03:57 | 25.85665 | 113.97286 | 25646 ft | 431 kts | 193° |
| 2026-04-26 03:57 | 25.82703 | 113.96777 | 25641 ft | 432 kts | 193° |
| 2026-04-26 03:57 | 25.79739 | 113.96268 | 25642 ft | 432 kts | 193° |
| 2026-04-26 03:58 | 25.76775 | 113.95758 | 25641 ft | 430 kts | 192° |
| 2026-04-26 03:58 | 25.73816 | 113.95250 | 25643 ft | 430 kts | 193° |
| 2026-04-26 03:58 | 25.70862 | 113.94740 | 25648 ft | 430 kts | 193° |
| 2026-04-26 03:58 | 25.67909 | 113.94227 | 25642 ft | 429 kts | 192° |
| 2026-04-26 03:59 | 25.61926 | 113.93195 | 25644 ft | 429 kts | 193° |
| 2026-04-26 03:59 | 25.58978 | 113.92688 | 25647 ft | 429 kts | 193° |
| 2026-04-26 03:59 | 25.56034 | 113.92182 | 25645 ft | 429 kts | 193° |
| 2026-04-26 04:00 | 25.53081 | 113.91675 | 25647 ft | 429 kts | 193° |
| 2026-04-26 04:00 | 25.50130 | 113.91168 | 25648 ft | 429 kts | 193° |
| 2026-04-26 04:00 | 25.47177 | 113.90661 | 25648 ft | 429 kts | 193° |
| 2026-04-26 04:00 | 25.45223 | 113.90325 | 25648 ft | 429 kts | 193° |